sensor_id;sensor_type;location;lat;lon;timestamp;temperature;humidity
13610;DHT22;6876;50.788;4.940;2023-10-13T00:01:52;18.10;99.90
13610;DHT22;6876;50.788;4.940;2023-10-13T00:04:40;18.10;99.90
13610;DHT22;6876;50.788;4.940;2023-10-13T00:07:28;18.10;99.90
13610;DHT22;6876;50.788;4.940;2023-10-13T00:10:15;18.10;99.90
13610;DHT22;6876;50.788;4.940;2023-10-13T00:13:06;18.20;99.90
13610;DHT22;6876;50.788;4.940;2023-10-13T00:15:58;18.10;99.90
13610;DHT22;6876;50.788;4.940;2023-10-13T00:18:45;18.20;99.90
13610;DHT22;6876;50.788;4.940;2023-10-13T00:21:34;18.20;99.90
13610;DHT22;6876;50.788;4.940;2023-10-13T00:24:21;18.20;99.90
13610;DHT22;6876;50.788;4.940;2023-10-13T00:27:17;18.20;99.90
13610;DHT22;6876;50.788;4.940;2023-10-13T00:30:20;18.20;99.90
13610;DHT22;6876;50.788;4.940;2023-10-13T00:33:19;18.20;99.90
13610;DHT22;6876;50.788;4.940;2023-10-13T00:36:08;18.20;99.90
13610;DHT22;6876;50.788;4.940;2023-10-13T00:39:03;18.10;99.90
13610;DHT22;6876;50.788;4.940;2023-10-13T00:41:51;18.20;99.90
13610;DHT22;6876;50.788;4.940;2023-10-13T00:44:44;18.20;99.90
13610;DHT22;6876;50.788;4.940;2023-10-13T00:47:35;18.10;99.90
13610;DHT22;6876;50.788;4.940;2023-10-13T00:50:35;18.20;99.90
13610;DHT22;6876;50.788;4.940;2023-10-13T00:53:23;18.20;99.90
13610;DHT22;6876;50.788;4.940;2023-10-13T00:56:11;18.20;99.90
13610;DHT22;6876;50.788;4.940;2023-10-13T00:59:04;18.20;99.90
13610;DHT22;6876;50.788;4.940;2023-10-13T01:01:55;18.20;99.90
13610;DHT22;6876;50.788;4.940;2023-10-13T01:04:43;18.20;99.90
13610;DHT22;6876;50.788;4.940;2023-10-13T01:07:32;18.20;99.90
13610;DHT22;6876;50.788;4.940;2023-10-13T01:10:19;18.20;99.90
13610;DHT22;6876;50.788;4.940;2023-10-13T01:13:12;18.20;99.90
13610;DHT22;6876;50.788;4.940;2023-10-13T01:15:58;18.10;99.90
13610;DHT22;6876;50.788;4.940;2023-10-13T01:18:47;18.10;99.90
13610;DHT22;6876;50.788;4.940;2023-10-13T01:21:35;18.10;99.90
13610;DHT22;6876;50.788;4.940;2023-10-13T01:24:24;18.10;99.90
13610;DHT22;6876;50.788;4.940;2023-10-13T01:27:11;18.10;99.90
13610;DHT22;6876;50.788;4.940;2023-10-13T01:30:04;18.10;99.90
13610;DHT22;6876;50.788;4.940;2023-10-13T01:32:56;18.00;99.90
13610;DHT22;6876;50.788;4.940;2023-10-13T01:35:46;18.00;99.90
13610;DHT22;6876;50.788;4.940;2023-10-13T01:38:34;18.00;99.90
13610;DHT22;6876;50.788;4.940;2023-10-13T01:41:23;18.00;99.90
13610;DHT22;6876;50.788;4.940;2023-10-13T01:44:10;18.10;99.90
13610;DHT22;6876;50.788;4.940;2023-10-13T01:46:57;18.00;99.90
13610;DHT22;6876;50.788;4.940;2023-10-13T01:49:45;18.10;99.90
13610;DHT22;6876;50.788;4.940;2023-10-13T01:52:33;18.10;99.90
13610;DHT22;6876;50.788;4.940;2023-10-13T01:55:20;18.00;99.90
13610;DHT22;6876;50.788;4.940;2023-10-13T01:58:09;18.00;99.90
13610;DHT22;6876;50.788;4.940;2023-10-13T02:01:01;18.00;99.90
13610;DHT22;6876;50.788;4.940;2023-10-13T02:03:54;18.00;99.90
13610;DHT22;6876;50.788;4.940;2023-10-13T02:06:49;18.00;99.90
13610;DHT22;6876;50.788;4.940;2023-10-13T02:09:38;18.00;99.90
13610;DHT22;6876;50.788;4.940;2023-10-13T02:12:24;18.00;99.90
13610;DHT22;6876;50.788;4.940;2023-10-13T02:15:23;18.00;99.90
13610;DHT22;6876;50.788;4.940;2023-10-13T02:18:15;18.10;99.90
13610;DHT22;6876;50.788;4.940;2023-10-13T02:21:06;18.10;99.90
13610;DHT22;6876;50.788;4.940;2023-10-13T02:23:58;18.10;99.90
13610;DHT22;6876;50.788;4.940;2023-10-13T02:26:50;18.10;99.90
13610;DHT22;6876;50.788;4.940;2023-10-13T02:29:37;18.10;99.90
13610;DHT22;6876;50.788;4.940;2023-10-13T02:32:26;18.10;99.90
13610;DHT22;6876;50.788;4.940;2023-10-13T02:35:16;18.10;99.90
13610;DHT22;6876;50.788;4.940;2023-10-13T02:38:03;18.20;99.90
13610;DHT22;6876;50.788;4.940;2023-10-13T02:40:56;18.20;99.90
13610;DHT22;6876;50.788;4.940;2023-10-13T02:43:52;18.20;99.90
13610;DHT22;6876;50.788;4.940;2023-10-13T02:46:38;18.20;99.90
13610;DHT22;6876;50.788;4.940;2023-10-13T02:49:29;18.20;99.90
13610;DHT22;6876;50.788;4.940;2023-10-13T02:52:20;18.20;99.90
13610;DHT22;6876;50.788;4.940;2023-10-13T02:55:10;18.20;99.90
13610;DHT22;6876;50.788;4.940;2023-10-13T02:58:01;18.20;99.90
13610;DHT22;6876;50.788;4.940;2023-10-13T03:00:49;18.20;99.90
13610;DHT22;6876;50.788;4.940;2023-10-13T03:03:37;18.20;99.90
13610;DHT22;6876;50.788;4.940;2023-10-13T03:06:25;18.20;99.90
13610;DHT22;6876;50.788;4.940;2023-10-13T03:09:18;18.20;99.90
13610;DHT22;6876;50.788;4.940;2023-10-13T03:12:04;18.20;99.90
13610;DHT22;6876;50.788;4.940;2023-10-13T03:14:54;18.20;99.90
13610;DHT22;6876;50.788;4.940;2023-10-13T03:17:58;18.20;99.90
13610;DHT22;6876;50.788;4.940;2023-10-13T03:20:45;18.20;99.90
13610;DHT22;6876;50.788;4.940;2023-10-13T03:23:37;18.20;99.90
13610;DHT22;6876;50.788;4.940;2023-10-13T03:26:32;18.20;99.90
13610;DHT22;6876;50.788;4.940;2023-10-13T03:29:30;18.20;99.90
13610;DHT22;6876;50.788;4.940;2023-10-13T03:32:17;18.20;99.90
13610;DHT22;6876;50.788;4.940;2023-10-13T03:35:06;18.30;99.90
13610;DHT22;6876;50.788;4.940;2023-10-13T03:37:58;18.30;99.90
13610;DHT22;6876;50.788;4.940;2023-10-13T03:40:50;18.30;99.90
13610;DHT22;6876;50.788;4.940;2023-10-13T03:43:53;18.30;99.90
13610;DHT22;6876;50.788;4.940;2023-10-13T03:46:53;18.30;99.90
13610;DHT22;6876;50.788;4.940;2023-10-13T03:49:41;18.30;99.90
13610;DHT22;6876;50.788;4.940;2023-10-13T03:52:28;18.30;99.90
13610;DHT22;6876;50.788;4.940;2023-10-13T03:55:21;18.30;99.90
13610;DHT22;6876;50.788;4.940;2023-10-13T03:58:14;18.30;99.90
13610;DHT22;6876;50.788;4.940;2023-10-13T04:01:02;18.30;99.90
13610;DHT22;6876;50.788;4.940;2023-10-13T04:03:51;18.30;99.90
13610;DHT22;6876;50.788;4.940;2023-10-13T04:06:49;18.30;99.90
13610;DHT22;6876;50.788;4.940;2023-10-13T04:09:59;18.40;99.90
13610;DHT22;6876;50.788;4.940;2023-10-13T04:13:03;18.30;99.90
13610;DHT22;6876;50.788;4.940;2023-10-13T04:16:24;18.30;99.90
13610;DHT22;6876;50.788;4.940;2023-10-13T04:19:24;18.30;99.90
13610;DHT22;6876;50.788;4.940;2023-10-13T04:22:12;18.40;99.90
13610;DHT22;6876;50.788;4.940;2023-10-13T04:25:06;18.40;99.90
13610;DHT22;6876;50.788;4.940;2023-10-13T04:28:14;18.40;99.90
13610;DHT22;6876;50.788;4.940;2023-10-13T04:31:20;18.40;99.90
13610;DHT22;6876;50.788;4.940;2023-10-13T04:34:28;18.40;99.90
13610;DHT22;6876;50.788;4.940;2023-10-13T04:37:24;18.40;99.90
13610;DHT22;6876;50.788;4.940;2023-10-13T04:40:18;18.40;99.90
13610;DHT22;6876;50.788;4.940;2023-10-13T04:43:05;18.50;99.90
13610;DHT22;6876;50.788;4.940;2023-10-13T04:46:12;18.50;99.90
13610;DHT22;6876;50.788;4.940;2023-10-13T04:49:11;18.50;99.90
13610;DHT22;6876;50.788;4.940;2023-10-13T04:52:14;18.50;99.90
13610;DHT22;6876;50.788;4.940;2023-10-13T04:55:13;18.40;99.90
13610;DHT22;6876;50.788;4.940;2023-10-13T04:58:18;18.40;99.90
13610;DHT22;6876;50.788;4.940;2023-10-13T05:01:27;18.40;99.90
13610;DHT22;6876;50.788;4.940;2023-10-13T05:04:41;18.50;99.90
13610;DHT22;6876;50.788;4.940;2023-10-13T05:07:44;18.40;99.90
13610;DHT22;6876;50.788;4.940;2023-10-13T05:11:03;18.40;99.90
13610;DHT22;6876;50.788;4.940;2023-10-13T05:14:08;18.40;99.90
13610;DHT22;6876;50.788;4.940;2023-10-13T05:17:13;18.40;99.90
13610;DHT22;6876;50.788;4.940;2023-10-13T05:20:19;18.30;99.90
13610;DHT22;6876;50.788;4.940;2023-10-13T05:23:25;18.30;99.90
13610;DHT22;6876;50.788;4.940;2023-10-13T05:26:30;18.30;99.90
13610;DHT22;6876;50.788;4.940;2023-10-13T05:29:38;18.30;99.90
13610;DHT22;6876;50.788;4.940;2023-10-13T05:32:43;18.30;99.90
13610;DHT22;6876;50.788;4.940;2023-10-13T05:36:08;18.30;99.90
13610;DHT22;6876;50.788;4.940;2023-10-13T05:39:14;18.30;99.90
13610;DHT22;6876;50.788;4.940;2023-10-13T05:42:19;18.30;99.90
13610;DHT22;6876;50.788;4.940;2023-10-13T05:45:24;18.30;99.90
13610;DHT22;6876;50.788;4.940;2023-10-13T05:48:26;18.30;99.90
13610;DHT22;6876;50.788;4.940;2023-10-13T05:51:30;18.40;99.90
13610;DHT22;6876;50.788;4.940;2023-10-13T05:54:34;18.40;99.90
13610;DHT22;6876;50.788;4.940;2023-10-13T05:57:38;18.40;99.90
13610;DHT22;6876;50.788;4.940;2023-10-13T06:00:43;18.30;99.90
13610;DHT22;6876;50.788;4.940;2023-10-13T06:03:48;18.30;99.90
13610;DHT22;6876;50.788;4.940;2023-10-13T06:06:53;18.30;99.90
13610;DHT22;6876;50.788;4.940;2023-10-13T06:09:59;18.30;99.90
13610;DHT22;6876;50.788;4.940;2023-10-13T06:13:04;18.30;99.90
13610;DHT22;6876;50.788;4.940;2023-10-13T06:16:10;18.30;99.90
13610;DHT22;6876;50.788;4.940;2023-10-13T06:19:15;18.30;99.90
13610;DHT22;6876;50.788;4.940;2023-10-13T06:22:19;18.40;99.90
13610;DHT22;6876;50.788;4.940;2023-10-13T06:25:26;18.40;99.90
13610;DHT22;6876;50.788;4.940;2023-10-13T06:28:30;18.40;99.90
13610;DHT22;6876;50.788;4.940;2023-10-13T06:31:31;18.50;99.90
13610;DHT22;6876;50.788;4.940;2023-10-13T06:34:21;18.50;99.90
13610;DHT22;6876;50.788;4.940;2023-10-13T06:37:23;18.60;99.90
13610;DHT22;6876;50.788;4.940;2023-10-13T06:40:12;18.70;99.90
13610;DHT22;6876;50.788;4.940;2023-10-13T06:43:09;18.70;99.90
13610;DHT22;6876;50.788;4.940;2023-10-13T06:46:02;18.80;99.90
13610;DHT22;6876;50.788;4.940;2023-10-13T06:48:50;18.90;99.90
13610;DHT22;6876;50.788;4.940;2023-10-13T06:51:39;19.00;99.90
13610;DHT22;6876;50.788;4.940;2023-10-13T06:54:28;19.10;99.90
13610;DHT22;6876;50.788;4.940;2023-10-13T06:57:18;19.10;99.90
13610;DHT22;6876;50.788;4.940;2023-10-13T07:00:10;19.20;99.90
13610;DHT22;6876;50.788;4.940;2023-10-13T07:03:05;19.30;99.90
13610;DHT22;6876;50.788;4.940;2023-10-13T07:05:53;19.30;99.90
13610;DHT22;6876;50.788;4.940;2023-10-13T07:08:40;19.40;99.90
13610;DHT22;6876;50.788;4.940;2023-10-13T07:11:28;19.50;99.90
13610;DHT22;6876;50.788;4.940;2023-10-13T07:14:24;19.60;99.90
13610;DHT22;6876;50.788;4.940;2023-10-13T07:17:14;19.70;99.90
13610;DHT22;6876;50.788;4.940;2023-10-13T07:20:10;19.90;99.90
13610;DHT22;6876;50.788;4.940;2023-10-13T07:23:10;20.10;99.90
13610;DHT22;6876;50.788;4.940;2023-10-13T07:26:05;20.20;99.90
13610;DHT22;6876;50.788;4.940;2023-10-13T07:28:54;20.30;99.90
13610;DHT22;6876;50.788;4.940;2023-10-13T07:31:41;20.40;99.90
13610;DHT22;6876;50.788;4.940;2023-10-13T07:34:32;20.40;99.90
13610;DHT22;6876;50.788;4.940;2023-10-13T07:37:21;20.50;99.90
13610;DHT22;6876;50.788;4.940;2023-10-13T07:40:11;20.60;99.90
13610;DHT22;6876;50.788;4.940;2023-10-13T07:43:25;21.10;99.90
13610;DHT22;6876;50.788;4.940;2023-10-13T07:46:13;21.70;99.90
13610;DHT22;6876;50.788;4.940;2023-10-13T07:49:01;22.10;99.90
13610;DHT22;6876;50.788;4.940;2023-10-13T07:51:59;22.20;99.90
13610;DHT22;6876;50.788;4.940;2023-10-13T07:55:00;22.00;99.90
13610;DHT22;6876;50.788;4.940;2023-10-13T07:57:57;22.10;99.90
13610;DHT22;6876;50.788;4.940;2023-10-13T08:00:45;22.80;1.00
13610;DHT22;6876;50.788;4.940;2023-10-13T08:03:40;23.60;1.00
13610;DHT22;6876;50.788;4.940;2023-10-13T08:06:34;24.00;11.90
13610;DHT22;6876;50.788;4.940;2023-10-13T08:09:24;24.10;1.00
13610;DHT22;6876;50.788;4.940;2023-10-13T08:12:25;23.30;99.90
13610;DHT22;6876;50.788;4.940;2023-10-13T08:15:13;22.80;99.90
13610;DHT22;6876;50.788;4.940;2023-10-13T08:18:07;24.30;99.90
13610;DHT22;6876;50.788;4.940;2023-10-13T08:21:03;25.00;1.00
13610;DHT22;6876;50.788;4.940;2023-10-13T08:23:52;23.60;99.90
13610;DHT22;6876;50.788;4.940;2023-10-13T08:26:53;22.60;1.00
13610;DHT22;6876;50.788;4.940;2023-10-13T08:29:58;22.30;1.00
13610;DHT22;6876;50.788;4.940;2023-10-13T08:33:03;22.60;1.00
13610;DHT22;6876;50.788;4.940;2023-10-13T08:36:03;22.70;99.90
13610;DHT22;6876;50.788;4.940;2023-10-13T08:39:14;22.80;1.00
13610;DHT22;6876;50.788;4.940;2023-10-13T08:42:31;22.40;78.90
13610;DHT22;6876;50.788;4.940;2023-10-13T08:45:39;21.90;1.00
13610;DHT22;6876;50.788;4.940;2023-10-13T08:48:44;21.70;1.00
13610;DHT22;6876;50.788;4.940;2023-10-13T08:51:36;22.40;99.90
13610;DHT22;6876;50.788;4.940;2023-10-13T08:54:32;22.40;99.90
13610;DHT22;6876;50.788;4.940;2023-10-13T08:57:33;22.20;99.90
13610;DHT22;6876;50.788;4.940;2023-10-13T09:00:20;22.10;99.90
13610;DHT22;6876;50.788;4.940;2023-10-13T09:03:38;21.90;1.00
13610;DHT22;6876;50.788;4.940;2023-10-13T09:06:27;22.00;1.00
13610;DHT22;6876;50.788;4.940;2023-10-13T09:09:14;23.60;1.00
13610;DHT22;6876;50.788;4.940;2023-10-13T09:12:21;24.90;99.90
13610;DHT22;6876;50.788;4.940;2023-10-13T09:15:13;25.80;1.00
13610;DHT22;6876;50.788;4.940;2023-10-13T09:18:10;25.20;99.90
13610;DHT22;6876;50.788;4.940;2023-10-13T09:21:00;25.70;1.00
13610;DHT22;6876;50.788;4.940;2023-10-13T09:24:10;25.80;99.90
13610;DHT22;6876;50.788;4.940;2023-10-13T09:27:03;24.70;99.90
13610;DHT22;6876;50.788;4.940;2023-10-13T09:29:58;23.90;1.00
13610;DHT22;6876;50.788;4.940;2023-10-13T09:33:00;23.10;99.90
13610;DHT22;6876;50.788;4.940;2023-10-13T09:35:47;22.70;1.00
13610;DHT22;6876;50.788;4.940;2023-10-13T09:38:36;22.60;99.90
13610;DHT22;6876;50.788;4.940;2023-10-13T09:41:26;22.40;1.00
13610;DHT22;6876;50.788;4.940;2023-10-13T09:44:13;22.20;99.90
13610;DHT22;6876;50.788;4.940;2023-10-13T09:47:04;22.10;1.00
13610;DHT22;6876;50.788;4.940;2023-10-13T09:49:59;22.00;25.80
13610;DHT22;6876;50.788;4.940;2023-10-13T09:52:51;21.80;99.90
13610;DHT22;6876;50.788;4.940;2023-10-13T09:55:42;21.70;1.00
13610;DHT22;6876;50.788;4.940;2023-10-13T09:58:31;21.80;1.00
13610;DHT22;6876;50.788;4.940;2023-10-13T10:01:24;21.70;1.00
13610;DHT22;6876;50.788;4.940;2023-10-13T10:04:20;21.70;99.90
13610;DHT22;6876;50.788;4.940;2023-10-13T10:07:10;21.70;99.90
13610;DHT22;6876;50.788;4.940;2023-10-13T10:10:03;21.70;99.90
13610;DHT22;6876;50.788;4.940;2023-10-13T10:12:54;21.70;99.90
13610;DHT22;6876;50.788;4.940;2023-10-13T10:15:44;21.70;1.00
13610;DHT22;6876;50.788;4.940;2023-10-13T10:18:33;21.80;1.00
13610;DHT22;6876;50.788;4.940;2023-10-13T10:21:21;21.90;1.00
13610;DHT22;6876;50.788;4.940;2023-10-13T10:24:20;22.00;1.00
13610;DHT22;6876;50.788;4.940;2023-10-13T10:27:24;22.20;99.90
13610;DHT22;6876;50.788;4.940;2023-10-13T10:30:12;23.00;1.00
13610;DHT22;6876;50.788;4.940;2023-10-13T10:33:00;23.70;5.20
13610;DHT22;6876;50.788;4.940;2023-10-13T10:35:59;23.70;1.00
13610;DHT22;6876;50.788;4.940;2023-10-13T10:38:53;23.40;1.00
13610;DHT22;6876;50.788;4.940;2023-10-13T10:41:46;23.30;99.90
13610;DHT22;6876;50.788;4.940;2023-10-13T10:44:40;23.20;1.00
13610;DHT22;6876;50.788;4.940;2023-10-13T10:47:29;23.10;99.90
13610;DHT22;6876;50.788;4.940;2023-10-13T10:50:25;23.10;1.00
13610;DHT22;6876;50.788;4.940;2023-10-13T10:53:21;23.00;1.00
13610;DHT22;6876;50.788;4.940;2023-10-13T10:56:23;23.00;44.30
13610;DHT22;6876;50.788;4.940;2023-10-13T10:59:16;23.00;1.00
13610;DHT22;6876;50.788;4.940;2023-10-13T11:02:05;22.90;99.90
13610;DHT22;6876;50.788;4.940;2023-10-13T11:05:01;22.90;1.00
13610;DHT22;6876;50.788;4.940;2023-10-13T11:07:52;22.80;1.00
13610;DHT22;6876;50.788;4.940;2023-10-13T11:10:47;22.80;1.00
13610;DHT22;6876;50.788;4.940;2023-10-13T11:13:41;22.70;1.00
13610;DHT22;6876;50.788;4.940;2023-10-13T11:16:38;22.70;99.90
13610;DHT22;6876;50.788;4.940;2023-10-13T11:19:37;22.90;1.00
13610;DHT22;6876;50.788;4.940;2023-10-13T11:22:25;23.00;83.70
13610;DHT22;6876;50.788;4.940;2023-10-13T11:25:23;23.30;1.00
13610;DHT22;6876;50.788;4.940;2023-10-13T11:28:17;23.60;99.90
13610;DHT22;6876;50.788;4.940;2023-10-13T11:31:05;23.80;1.00
13610;DHT22;6876;50.788;4.940;2023-10-13T11:34:01;23.90;1.00
13610;DHT22;6876;50.788;4.940;2023-10-13T11:36:52;24.00;1.00
13610;DHT22;6876;50.788;4.940;2023-10-13T11:39:39;23.90;99.90
13610;DHT22;6876;50.788;4.940;2023-10-13T11:42:28;23.70;99.90
13610;DHT22;6876;50.788;4.940;2023-10-13T11:45:16;23.40;1.00
13610;DHT22;6876;50.788;4.940;2023-10-13T11:48:15;23.20;99.90
13610;DHT22;6876;50.788;4.940;2023-10-13T11:51:05;23.20;1.00
13610;DHT22;6876;50.788;4.940;2023-10-13T11:53:53;23.10;1.00
13610;DHT22;6876;50.788;4.940;2023-10-13T11:56:41;23.20;1.00
13610;DHT22;6876;50.788;4.940;2023-10-13T11:59:29;23.20;1.00
13610;DHT22;6876;50.788;4.940;2023-10-13T12:02:17;23.20;1.00
13610;DHT22;6876;50.788;4.940;2023-10-13T12:05:21;23.30;1.00
13610;DHT22;6876;50.788;4.940;2023-10-13T12:08:24;23.50;1.00
13610;DHT22;6876;50.788;4.940;2023-10-13T12:11:19;23.70;1.00
13610;DHT22;6876;50.788;4.940;2023-10-13T12:14:18;23.90;99.90
13610;DHT22;6876;50.788;4.940;2023-10-13T12:17:07;23.90;99.90
13610;DHT22;6876;50.788;4.940;2023-10-13T12:19:58;24.00;99.90
13610;DHT22;6876;50.788;4.940;2023-10-13T12:22:46;24.10;99.90
13610;DHT22;6876;50.788;4.940;2023-10-13T12:25:42;24.30;99.90
13610;DHT22;6876;50.788;4.940;2023-10-13T12:28:44;24.40;1.00
13610;DHT22;6876;50.788;4.940;2023-10-13T12:31:37;24.50;1.00
13610;DHT22;6876;50.788;4.940;2023-10-13T12:34:25;24.30;1.00
13610;DHT22;6876;50.788;4.940;2023-10-13T12:37:32;24.00;1.00
13610;DHT22;6876;50.788;4.940;2023-10-13T12:40:35;23.90;1.00
13610;DHT22;6876;50.788;4.940;2023-10-13T12:43:41;23.80;1.00
13610;DHT22;6876;50.788;4.940;2023-10-13T12:46:54;23.70;1.00
13610;DHT22;6876;50.788;4.940;2023-10-13T12:49:59;23.70;1.00
13610;DHT22;6876;50.788;4.940;2023-10-13T12:52:53;23.50;1.00
13610;DHT22;6876;50.788;4.940;2023-10-13T12:55:41;23.50;1.00
13610;DHT22;6876;50.788;4.940;2023-10-13T12:58:28;23.40;1.00
13610;DHT22;6876;50.788;4.940;2023-10-13T13:01:17;23.30;1.00
13610;DHT22;6876;50.788;4.940;2023-10-13T13:04:06;23.40;1.00
13610;DHT22;6876;50.788;4.940;2023-10-13T13:06:58;23.40;1.00
13610;DHT22;6876;50.788;4.940;2023-10-13T13:09:45;23.40;1.00
13610;DHT22;6876;50.788;4.940;2023-10-13T13:12:32;23.30;1.00
13610;DHT22;6876;50.788;4.940;2023-10-13T13:15:20;23.30;1.00
13610;DHT22;6876;50.788;4.940;2023-10-13T13:18:11;23.30;1.00
13610;DHT22;6876;50.788;4.940;2023-10-13T13:20:58;23.30;1.00
13610;DHT22;6876;50.788;4.940;2023-10-13T13:23:46;23.20;1.00
13610;DHT22;6876;50.788;4.940;2023-10-13T13:26:34;23.10;1.00
13610;DHT22;6876;50.788;4.940;2023-10-13T13:29:22;22.90;1.00
13610;DHT22;6876;50.788;4.940;2023-10-13T13:32:12;22.80;99.90
13610;DHT22;6876;50.788;4.940;2023-10-13T13:35:07;22.70;99.90
13610;DHT22;6876;50.788;4.940;2023-10-13T13:37:59;22.70;99.90
13610;DHT22;6876;50.788;4.940;2023-10-13T13:40:55;22.80;99.90
13610;DHT22;6876;50.788;4.940;2023-10-13T13:43:43;22.90;99.90
13610;DHT22;6876;50.788;4.940;2023-10-13T13:46:40;22.90;99.90
13610;DHT22;6876;50.788;4.940;2023-10-13T13:49:28;22.80;99.90
13610;DHT22;6876;50.788;4.940;2023-10-13T13:52:27;22.80;99.90
13610;DHT22;6876;50.788;4.940;2023-10-13T13:55:33;22.70;99.90
13610;DHT22;6876;50.788;4.940;2023-10-13T13:58:21;22.60;99.90
13610;DHT22;6876;50.788;4.940;2023-10-13T14:01:11;22.60;99.90
13610;DHT22;6876;50.788;4.940;2023-10-13T14:04:00;22.60;99.90
13610;DHT22;6876;50.788;4.940;2023-10-13T14:06:49;22.60;99.90
13610;DHT22;6876;50.788;4.940;2023-10-13T14:09:37;22.50;1.00
13610;DHT22;6876;50.788;4.940;2023-10-13T14:12:26;22.50;1.00
13610;DHT22;6876;50.788;4.940;2023-10-13T14:15:22;22.40;1.00
13610;DHT22;6876;50.788;4.940;2023-10-13T14:18:11;22.40;1.00
13610;DHT22;6876;50.788;4.940;2023-10-13T14:21:00;22.40;1.00
13610;DHT22;6876;50.788;4.940;2023-10-13T14:23:51;22.30;1.00
13610;DHT22;6876;50.788;4.940;2023-10-13T14:26:41;22.30;1.00
13610;DHT22;6876;50.788;4.940;2023-10-13T14:29:30;22.30;1.00
13610;DHT22;6876;50.788;4.940;2023-10-13T14:32:17;22.30;1.00
13610;DHT22;6876;50.788;4.940;2023-10-13T14:35:05;22.40;1.00
13610;DHT22;6876;50.788;4.940;2023-10-13T14:38:00;22.40;1.00
13610;DHT22;6876;50.788;4.940;2023-10-13T14:40:56;22.40;1.00
13610;DHT22;6876;50.788;4.940;2023-10-13T14:43:45;22.40;1.00
13610;DHT22;6876;50.788;4.940;2023-10-13T14:46:34;22.40;1.00
13610;DHT22;6876;50.788;4.940;2023-10-13T14:49:25;22.30;1.00
13610;DHT22;6876;50.788;4.940;2023-10-13T14:52:12;22.20;1.00
13610;DHT22;6876;50.788;4.940;2023-10-13T14:55:00;22.20;99.90
13610;DHT22;6876;50.788;4.940;2023-10-13T14:57:53;22.20;99.90
13610;DHT22;6876;50.788;4.940;2023-10-13T15:00:42;22.20;99.90
13610;DHT22;6876;50.788;4.940;2023-10-13T15:03:31;22.10;1.00
13610;DHT22;6876;50.788;4.940;2023-10-13T15:06:25;22.00;1.00
13610;DHT22;6876;50.788;4.940;2023-10-13T15:09:14;22.00;1.00
13610;DHT22;6876;50.788;4.940;2023-10-13T15:12:09;22.00;1.00
13610;DHT22;6876;50.788;4.940;2023-10-13T15:14:57;22.00;1.00
13610;DHT22;6876;50.788;4.940;2023-10-13T15:17:46;21.90;1.00
13610;DHT22;6876;50.788;4.940;2023-10-13T15:20:39;21.90;99.90
13610;DHT22;6876;50.788;4.940;2023-10-13T15:23:29;21.80;1.00
13610;DHT22;6876;50.788;4.940;2023-10-13T15:26:19;21.80;99.90
13610;DHT22;6876;50.788;4.940;2023-10-13T15:29:07;21.70;1.00
13610;DHT22;6876;50.788;4.940;2023-10-13T15:31:55;21.70;1.00
13610;DHT22;6876;50.788;4.940;2023-10-13T15:35:12;21.70;1.00
13610;DHT22;6876;50.788;4.940;2023-10-13T15:38:00;21.60;99.90
13610;DHT22;6876;50.788;4.940;2023-10-13T15:40:48;21.60;99.90
13610;DHT22;6876;50.788;4.940;2023-10-13T15:43:40;21.50;99.90
13610;DHT22;6876;50.788;4.940;2023-10-13T15:46:36;21.40;99.90
13610;DHT22;6876;50.788;4.940;2023-10-13T15:49:24;21.30;1.00
13610;DHT22;6876;50.788;4.940;2023-10-13T15:52:15;21.30;1.00
13610;DHT22;6876;50.788;4.940;2023-10-13T15:55:03;21.30;1.00
13610;DHT22;6876;50.788;4.940;2023-10-13T15:57:53;21.10;99.90
13610;DHT22;6876;50.788;4.940;2023-10-13T16:00:40;21.00;99.90
13610;DHT22;6876;50.788;4.940;2023-10-13T16:03:28;20.90;1.00
13610;DHT22;6876;50.788;4.940;2023-10-13T16:06:15;20.80;99.10
13610;DHT22;6876;50.788;4.940;2023-10-13T16:09:04;20.80;99.90
13610;DHT22;6876;50.788;4.940;2023-10-13T16:11:59;20.70;1.00
13610;DHT22;6876;50.788;4.940;2023-10-13T16:14:47;20.60;1.00
13610;DHT22;6876;50.788;4.940;2023-10-13T16:17:34;20.50;1.00
13610;DHT22;6876;50.788;4.940;2023-10-13T16:20:25;20.50;99.30
13610;DHT22;6876;50.788;4.940;2023-10-13T16:23:13;20.30;99.90
13610;DHT22;6876;50.788;4.940;2023-10-13T16:26:04;20.20;99.90
13610;DHT22;6876;50.788;4.940;2023-10-13T16:28:53;20.20;99.90
13610;DHT22;6876;50.788;4.940;2023-10-13T16:31:43;20.20;99.90
13610;DHT22;6876;50.788;4.940;2023-10-13T16:34:32;20.10;99.90
13610;DHT22;6876;50.788;4.940;2023-10-13T16:37:19;20.10;99.90
13610;DHT22;6876;50.788;4.940;2023-10-13T16:40:08;20.10;99.90
13610;DHT22;6876;50.788;4.940;2023-10-13T16:42:57;20.10;99.90
13610;DHT22;6876;50.788;4.940;2023-10-13T16:45:44;20.10;99.90
13610;DHT22;6876;50.788;4.940;2023-10-13T16:48:31;20.10;99.90
13610;DHT22;6876;50.788;4.940;2023-10-13T16:51:19;20.00;99.90
13610;DHT22;6876;50.788;4.940;2023-10-13T16:54:06;20.00;1.00
13610;DHT22;6876;50.788;4.940;2023-10-13T16:56:54;20.00;99.90
13610;DHT22;6876;50.788;4.940;2023-10-13T16:59:43;20.00;1.00
13610;DHT22;6876;50.788;4.940;2023-10-13T17:02:33;19.90;1.00
13610;DHT22;6876;50.788;4.940;2023-10-13T17:05:21;20.00;99.90
13610;DHT22;6876;50.788;4.940;2023-10-13T17:08:13;20.10;99.90
13610;DHT22;6876;50.788;4.940;2023-10-13T17:11:07;20.10;99.90
13610;DHT22;6876;50.788;4.940;2023-10-13T17:13:56;20.00;99.90
13610;DHT22;6876;50.788;4.940;2023-10-13T17:16:46;20.00;99.90
13610;DHT22;6876;50.788;4.940;2023-10-13T17:19:34;20.00;99.90
13610;DHT22;6876;50.788;4.940;2023-10-13T17:22:21;20.00;99.90
13610;DHT22;6876;50.788;4.940;2023-10-13T17:25:09;20.00;99.90
13610;DHT22;6876;50.788;4.940;2023-10-13T17:27:58;20.10;99.90
13610;DHT22;6876;50.788;4.940;2023-10-13T17:30:46;20.10;99.90
13610;DHT22;6876;50.788;4.940;2023-10-13T17:33:37;20.10;99.90
13610;DHT22;6876;50.788;4.940;2023-10-13T17:36:26;20.20;99.90
13610;DHT22;6876;50.788;4.940;2023-10-13T17:39:15;20.20;99.90
13610;DHT22;6876;50.788;4.940;2023-10-13T17:42:03;20.20;99.90
13610;DHT22;6876;50.788;4.940;2023-10-13T17:44:51;20.20;99.90
13610;DHT22;6876;50.788;4.940;2023-10-13T17:47:39;20.10;99.90
13610;DHT22;6876;50.788;4.940;2023-10-13T17:50:28;20.20;99.90
13610;DHT22;6876;50.788;4.940;2023-10-13T17:53:15;20.10;99.90
13610;DHT22;6876;50.788;4.940;2023-10-13T17:56:04;20.10;99.90
13610;DHT22;6876;50.788;4.940;2023-10-13T17:58:56;20.00;1.00
13610;DHT22;6876;50.788;4.940;2023-10-13T18:01:44;19.90;1.00
13610;DHT22;6876;50.788;4.940;2023-10-13T18:04:34;19.90;1.00
13610;DHT22;6876;50.788;4.940;2023-10-13T18:07:23;19.90;1.00
13610;DHT22;6876;50.788;4.940;2023-10-13T18:10:12;19.80;1.00
13610;DHT22;6876;50.788;4.940;2023-10-13T18:13:00;19.80;1.00
13610;DHT22;6876;50.788;4.940;2023-10-13T18:15:47;19.80;1.00
13610;DHT22;6876;50.788;4.940;2023-10-13T18:18:35;19.80;1.00
13610;DHT22;6876;50.788;4.940;2023-10-13T18:21:24;19.80;1.00
13610;DHT22;6876;50.788;4.940;2023-10-13T18:24:15;19.90;1.00
13610;DHT22;6876;50.788;4.940;2023-10-13T18:27:04;19.90;99.90
13610;DHT22;6876;50.788;4.940;2023-10-13T18:29:52;19.90;99.90
13610;DHT22;6876;50.788;4.940;2023-10-13T18:32:40;20.10;99.90
13610;DHT22;6876;50.788;4.940;2023-10-13T18:35:28;20.10;99.90
13610;DHT22;6876;50.788;4.940;2023-10-13T18:38:17;20.10;99.90